createdAt,value
2023-08-29T00:01:48.386Z,97874.31
2023-08-29T00:04:15.839Z,97881.94
2023-08-29T00:06:43.049Z,97892.63
2023-08-29T00:09:10.717Z,97888.78
2023-08-29T00:11:38.346Z,97891.41
2023-08-29T00:14:06.603Z,97887.56
2023-08-29T00:16:33.978Z,97888.09
2023-08-29T00:19:01.515Z,97867.34
2023-08-29T00:21:28.751Z,97874.50
2023-08-29T00:23:56.381Z,97876.00
2023-08-29T00:26:23.501Z,97879.38
2023-08-29T00:28:54.202Z,97879.59
2023-08-29T00:31:22.084Z,97880.28
2023-08-29T00:33:49.822Z,97872.53
2023-08-29T00:36:17.484Z,97862.50
2023-08-29T00:38:44.997Z,97868.06
2023-08-29T00:41:12.713Z,97863.25
2023-08-29T00:43:40.067Z,97859.44
2023-08-29T00:46:10.377Z,97870.06
2023-08-29T00:48:39.273Z,97873.19
2023-08-29T00:51:06.726Z,97873.50
2023-08-29T00:53:34.249Z,97890.00
2023-08-29T00:56:01.668Z,97891.56
2023-08-29T00:58:29.502Z,97895.91
2023-08-29T01:00:57.036Z,97887.53
2023-08-29T01:03:24.595Z,97891.25
2023-08-29T01:05:52.209Z,97881.22
2023-08-29T01:08:19.650Z,97890.22
2023-08-29T01:11:23.489Z,97902.34
2023-08-29T01:14:44.042Z,97901.47
2023-08-29T01:17:23.657Z,97900.91
2023-08-29T01:19:52.827Z,97914.69
2023-08-29T01:22:41.234Z,97919.31
2023-08-29T01:25:11.173Z,97913.41
2023-08-29T01:27:39.068Z,97911.25
2023-08-29T01:30:07.469Z,97907.78
2023-08-29T01:32:35.084Z,97904.28
2023-08-29T01:35:05.816Z,97903.78
2023-08-29T01:37:33.011Z,97903.09
2023-08-29T01:40:00.945Z,97910.00
2023-08-29T01:42:28.873Z,97907.94
2023-08-29T01:44:56.144Z,97902.88
2023-08-29T01:47:23.620Z,97911.84
2023-08-29T01:49:52.410Z,97904.06
2023-08-29T01:52:19.770Z,97919.75
2023-08-29T01:54:46.940Z,97905.00
2023-08-29T01:57:14.479Z,97911.69
2023-08-29T01:59:41.927Z,97904.25
2023-08-29T02:02:09.257Z,97904.19
2023-08-29T02:04:36.843Z,97904.75
2023-08-29T02:07:06.666Z,97897.16
2023-08-29T02:09:34.175Z,97899.69
2023-08-29T02:12:03.398Z,97905.06
2023-08-29T02:14:30.708Z,97906.91
2023-08-29T02:16:58.464Z,97894.00
2023-08-29T02:19:27.174Z,97901.84
2023-08-29T02:21:54.905Z,97890.13
2023-08-29T02:24:23.230Z,97886.00
2023-08-29T02:26:50.733Z,97893.25
2023-08-29T02:29:18.413Z,97898.47
2023-08-29T02:31:46.632Z,97904.88
2023-08-29T02:34:13.945Z,97893.44
2023-08-29T02:36:41.986Z,97904.31
2023-08-29T02:39:09.536Z,97905.06
2023-08-29T02:41:37.974Z,97901.19
2023-08-29T02:44:05.805Z,97910.66
2023-08-29T02:46:33.431Z,97892.94
2023-08-29T02:49:01.017Z,97906.59
2023-08-29T02:51:28.620Z,97902.47
2023-08-29T02:53:56.766Z,97912.25
2023-08-29T02:56:24.218Z,97913.84
2023-08-29T02:58:52.129Z,97909.00
2023-08-29T03:01:20.467Z,97910.50
2023-08-29T03:03:48.703Z,97893.75
2023-08-29T03:06:15.937Z,97906.94
2023-08-29T03:08:43.624Z,97918.06
2023-08-29T03:11:10.879Z,97915.88
2023-08-29T03:13:38.451Z,97907.44
2023-08-29T03:16:16.857Z,97910.09
2023-08-29T03:18:46.915Z,97920.31
2023-08-29T03:21:14.510Z,97904.88
2023-08-29T03:23:42.139Z,97911.97
2023-08-29T03:26:11.600Z,97906.31
2023-08-29T03:28:41.857Z,97906.94
2023-08-29T03:31:10.266Z,97916.47
2023-08-29T03:33:42.093Z,97903.38
2023-08-29T03:36:10.117Z,97910.13
2023-08-29T03:38:41.277Z,97904.31
2023-08-29T03:41:09.268Z,97907.38
2023-08-29T03:43:37.464Z,97907.53
2023-08-29T03:46:06.047Z,97906.25
2023-08-29T03:48:34.939Z,97915.97
2023-08-29T03:51:11.745Z,97909.94
2023-08-29T03:53:39.008Z,97917.28
2023-08-29T03:56:09.958Z,97913.03
2023-08-29T03:58:37.204Z,97920.94
2023-08-29T04:01:05.322Z,97918.19
2023-08-29T04:03:33.035Z,97901.41
2023-08-29T04:06:02.799Z,97908.34
2023-08-29T04:08:30.398Z,97912.84
2023-08-29T04:10:57.888Z,97902.38
2023-08-29T04:13:25.730Z,97901.72
2023-08-29T04:15:54.123Z,97902.59
2023-08-29T04:18:21.651Z,97900.16
2023-08-29T04:20:49.237Z,97901.16
2023-08-29T04:23:17.862Z,97891.91
2023-08-29T04:25:45.917Z,97887.13
2023-08-29T04:28:15.427Z,97885.63
2023-08-29T04:30:42.977Z,97883.38
2023-08-29T04:33:10.917Z,97879.41
2023-08-29T04:35:38.311Z,97880.19
2023-08-29T04:38:06.232Z,97881.72
2023-08-29T04:40:33.817Z,97873.66
2023-08-29T04:43:01.451Z,97865.84
2023-08-29T04:45:28.739Z,97876.22
2023-08-29T04:47:56.446Z,97877.47
2023-08-29T04:50:26.486Z,97866.56
2023-08-29T04:52:54.584Z,97860.38
2023-08-29T04:55:22.041Z,97859.22
2023-08-29T04:57:50.103Z,97852.16
2023-08-29T05:00:18.246Z,97861.28
2023-08-29T05:02:45.972Z,97857.06
2023-08-29T05:05:13.451Z,97861.16
2023-08-29T05:07:40.712Z,97849.47
2023-08-29T05:10:09.764Z,97848.91
2023-08-29T05:12:37.409Z,97856.25
2023-08-29T05:15:06.074Z,97850.84
2023-08-29T05:17:33.937Z,97849.13
2023-08-29T05:20:01.221Z,97849.50
2023-08-29T05:22:28.541Z,97861.41
2023-08-29T05:24:56.140Z,97853.28
2023-08-29T05:27:23.785Z,97844.88
2023-08-29T05:29:51.085Z,97851.22
2023-08-29T05:32:18.546Z,97858.94
2023-08-29T05:34:45.930Z,97849.22
2023-08-29T05:37:13.416Z,97849.81
2023-08-29T05:39:41.519Z,97844.31
2023-08-29T05:42:09.145Z,97850.81
2023-08-29T05:44:37.070Z,97852.53
2023-08-29T05:47:04.450Z,97845.78
2023-08-29T05:49:32.343Z,97853.31
2023-08-29T05:51:59.703Z,97861.16
2023-08-29T05:54:28.102Z,97849.59
2023-08-29T05:56:55.347Z,97841.22
2023-08-29T05:59:22.652Z,97860.38
2023-08-29T06:01:50.091Z,97849.63
2023-08-29T06:04:17.554Z,97850.88
2023-08-29T06:06:45.206Z,97837.75
2023-08-29T06:09:12.885Z,97846.81
2023-08-29T06:11:41.029Z,97840.44
2023-08-29T06:14:08.707Z,97833.75
2023-08-29T06:16:36.412Z,97841.72
2023-08-29T06:19:04.156Z,97841.72
2023-08-29T06:21:31.331Z,97842.91
2023-08-29T06:23:58.612Z,97833.88
2023-08-29T06:26:26.160Z,97843.00
2023-08-29T06:28:53.669Z,97838.78
2023-08-29T06:31:21.604Z,97840.16
2023-08-29T06:33:49.006Z,97846.47
2023-08-29T06:36:17.158Z,97835.88
2023-08-29T06:38:44.360Z,97840.69
2023-08-29T06:41:12.237Z,97834.13
2023-08-29T06:43:39.863Z,97826.13
2023-08-29T06:46:07.327Z,97830.28
2023-08-29T06:48:34.911Z,97813.06
2023-08-29T06:51:03.199Z,97818.50
2023-08-29T06:53:30.780Z,97821.09
2023-08-29T06:55:58.374Z,97825.22
2023-08-29T06:58:27.155Z,97828.94
2023-08-29T07:00:54.732Z,97833.75
2023-08-29T07:03:22.108Z,97827.81
2023-08-29T07:05:49.540Z,97836.50
2023-08-29T07:08:17.231Z,97849.34
2023-08-29T07:10:45.040Z,97852.41
2023-08-29T07:13:12.700Z,97850.78
2023-08-29T07:15:40.229Z,97843.56
2023-08-29T07:18:07.721Z,97843.66
2023-08-29T07:20:35.554Z,97842.84
2023-08-29T07:23:03.634Z,97838.63
2023-08-29T07:25:42.449Z,97847.25
2023-08-29T07:28:14.644Z,97853.59
2023-08-29T07:30:48.730Z,97850.25
2023-08-29T07:33:16.452Z,97847.88
2023-08-29T07:35:43.899Z,97847.63
2023-08-29T07:38:11.194Z,97844.28
2023-08-29T07:40:38.752Z,97850.91
2023-08-29T07:43:07.764Z,97842.72
2023-08-29T07:45:35.867Z,97844.66
2023-08-29T07:48:03.958Z,97857.34
2023-08-29T07:50:31.785Z,97862.72
2023-08-29T07:52:59.442Z,97862.97
2023-08-29T07:55:27.291Z,97857.53
2023-08-29T07:57:54.571Z,97861.00
2023-08-29T08:00:22.285Z,97866.13
2023-08-29T08:02:50.026Z,97867.72
2023-08-29T08:05:17.947Z,97885.16
2023-08-29T08:07:45.881Z,97892.28
2023-08-29T08:10:14.034Z,97886.22
2023-08-29T08:12:41.594Z,97878.97
2023-08-29T08:15:09.577Z,97880.63
2023-08-29T08:17:37.601Z,97879.66
2023-08-29T08:20:13.100Z,97882.69
2023-08-29T08:22:41.383Z,97892.94
2023-08-29T08:25:11.018Z,97884.19
2023-08-29T08:27:41.060Z,97905.50
2023-08-29T08:30:09.380Z,97909.78
2023-08-29T08:32:37.183Z,97904.41
2023-08-29T08:35:08.444Z,97911.81
2023-08-29T08:37:37.100Z,97901.00
2023-08-29T08:40:11.788Z,97913.84
2023-08-29T08:42:42.223Z,97908.00
2023-08-29T08:45:13.008Z,97898.13
2023-08-29T08:47:40.701Z,97917.63
2023-08-29T08:50:09.470Z,97910.03
2023-08-29T08:52:39.499Z,97912.53
2023-08-29T08:55:07.678Z,97919.94
2023-08-29T08:57:35.278Z,97924.34
2023-08-29T09:00:03.715Z,97917.03
2023-08-29T09:02:31.316Z,97922.31
2023-08-29T09:05:01.860Z,97929.00
2023-08-29T09:07:29.149Z,97922.41
2023-08-29T09:10:12.773Z,97924.97
2023-08-29T09:12:50.884Z,97925.03
2023-08-29T09:15:19.993Z,97920.75
2023-08-29T09:17:51.332Z,97930.28
2023-08-29T09:20:19.164Z,97938.69
2023-08-29T09:22:46.704Z,97958.69
2023-08-29T09:25:14.531Z,97953.84
2023-08-29T09:27:48.858Z,97960.75
2023-08-29T09:30:17.445Z,97969.22
2023-08-29T09:32:49.730Z,97967.59
2023-08-29T09:35:19.884Z,97971.94
2023-08-29T09:37:54.204Z,97964.16
2023-08-29T09:40:38.265Z,97979.53
2023-08-29T09:43:07.454Z,97980.59
2023-08-29T09:45:36.412Z,97972.94
2023-08-29T09:48:07.338Z,97988.78
2023-08-29T09:50:36.357Z,97993.78
2023-08-29T09:53:04.171Z,98009.66
2023-08-29T09:55:34.273Z,97998.72
2023-08-29T09:58:02.600Z,98000.34
2023-08-29T10:00:30.182Z,98007.72
2023-08-29T10:02:57.842Z,98012.03
2023-08-29T10:05:26.934Z,98016.91
2023-08-29T10:07:57.660Z,98015.78
2023-08-29T10:10:25.267Z,98015.84
2023-08-29T10:12:53.058Z,98025.00
2023-08-29T10:15:21.023Z,98030.94
2023-08-29T10:17:48.781Z,98035.50
2023-08-29T10:20:16.302Z,98033.75
2023-08-29T10:22:49.409Z,98038.28
2023-08-29T10:25:19.494Z,98046.25
2023-08-29T10:27:46.692Z,98036.69
2023-08-29T10:30:15.808Z,98037.25
2023-08-29T10:32:44.395Z,98046.63
2023-08-29T10:35:19.618Z,98066.81
2023-08-29T10:37:53.645Z,98066.72
2023-08-29T10:40:21.983Z,98076.13
2023-08-29T10:42:58.281Z,98080.94
2023-08-29T10:45:48.929Z,98097.81
2023-08-29T10:48:31.985Z,98096.25
2023-08-29T10:51:11.805Z,98097.66
2023-08-29T10:53:39.604Z,98096.97
2023-08-29T10:56:09.005Z,98095.75
2023-08-29T10:58:40.270Z,98106.44
2023-08-29T11:01:08.879Z,98097.28
2023-08-29T11:03:43.351Z,98113.84
2023-08-29T11:06:11.249Z,98123.78
2023-08-29T11:08:38.557Z,98113.41
2023-08-29T11:11:20.146Z,98130.13
2023-08-29T11:14:14.004Z,98137.72
2023-08-29T11:17:13.415Z,98140.22
2023-08-29T11:19:43.051Z,98144.16
2023-08-29T11:22:13.122Z,98150.78
2023-08-29T11:24:40.977Z,98150.75
2023-08-29T11:27:09.250Z,98153.78
2023-08-29T11:29:37.612Z,98168.00
2023-08-29T11:32:06.158Z,98153.84
2023-08-29T11:34:36.322Z,98182.84
2023-08-29T11:37:05.215Z,98159.25
2023-08-29T11:39:36.121Z,98172.25
2023-08-29T11:42:21.349Z,98193.06
2023-08-29T11:45:36.871Z,98189.88
2023-08-29T11:47:42.286Z,98180.00
2023-08-29T11:50:11.979Z,98207.88
2023-08-29T11:52:39.931Z,98204.44
2023-08-29T11:55:09.453Z,98211.56
2023-08-29T11:57:38.128Z,98251.00
2023-08-29T12:00:10.486Z,98255.38
2023-08-29T12:02:37.907Z,98289.84
2023-08-29T12:05:08.867Z,98284.38
2023-08-29T12:07:36.263Z,98301.50
2023-08-29T12:10:10.634Z,98305.28
2023-08-29T12:12:40.623Z,98309.63
2023-08-29T12:15:11.990Z,98331.97
2023-08-29T12:17:42.004Z,98330.84
2023-08-29T12:20:15.814Z,98368.28
2023-08-29T12:22:48.244Z,98366.94
2023-08-29T12:25:16.493Z,98370.53
2023-08-29T12:27:47.355Z,98388.28
2023-08-29T12:30:15.725Z,98381.44
2023-08-29T12:32:50.249Z,98384.78
2023-08-29T12:35:18.721Z,98384.06
2023-08-29T12:37:46.062Z,98374.88
2023-08-29T12:40:15.354Z,98399.84
2023-08-29T12:42:45.078Z,98409.50
2023-08-29T12:45:12.542Z,98412.69
2023-08-29T12:47:40.175Z,98417.28
2023-08-29T12:50:08.782Z,98414.00
2023-08-29T12:52:36.643Z,98431.22
2023-08-29T12:55:04.373Z,98430.19
2023-08-29T12:57:32.192Z,98444.44
2023-08-29T12:59:59.684Z,98440.78
2023-08-29T13:02:27.167Z,98435.50
2023-08-29T13:04:55.317Z,98424.22
2023-08-29T13:07:23.061Z,98441.94
2023-08-29T13:09:52.600Z,98443.28
2023-08-29T13:12:29.060Z,98434.53
2023-08-29T13:14:56.824Z,98459.75
2023-08-29T13:17:24.797Z,98478.72
2023-08-29T13:19:52.051Z,98498.16
2023-08-29T13:22:19.496Z,98515.06
2023-08-29T13:24:47.227Z,98547.13
2023-08-29T13:27:15.103Z,98588.47
2023-08-29T13:29:43.085Z,98629.09
2023-08-29T13:32:10.601Z,98657.38
2023-08-29T13:34:38.729Z,98680.16
2023-08-29T13:37:06.606Z,98672.38
2023-08-29T13:39:33.876Z,98632.34
2023-08-29T13:42:01.780Z,98616.66
2023-08-29T13:44:29.374Z,98604.41
2023-08-29T13:46:57.195Z,98571.22
2023-08-29T13:49:24.286Z,98547.13
2023-08-29T13:51:52.670Z,98506.22
2023-08-29T13:54:20.904Z,98479.25
2023-08-29T13:56:48.832Z,98484.22
2023-08-29T13:59:16.355Z,98553.06
2023-08-29T14:01:43.752Z,98580.91
2023-08-29T14:04:11.252Z,98587.22
2023-08-29T14:06:39.011Z,98595.09
2023-08-29T14:09:06.724Z,98604.59
2023-08-29T14:11:34.089Z,98619.63
2023-08-29T14:14:01.469Z,98631.31
2023-08-29T14:16:32.829Z,98631.03
2023-08-29T14:19:00.342Z,98636.22
2023-08-29T14:21:28.237Z,98659.97
2023-08-29T14:23:55.581Z,98664.31
2023-08-29T14:26:23.452Z,98643.06
2023-08-29T14:28:50.883Z,98621.50
2023-08-29T14:31:25.134Z,98606.75
2023-08-29T14:33:53.383Z,98605.06
2023-08-29T14:36:21.940Z,98594.97
2023-08-29T14:38:49.962Z,98603.94
2023-08-29T14:41:17.427Z,98623.84
2023-08-29T14:43:45.346Z,98657.16
2023-08-29T14:46:12.627Z,98677.38
2023-08-29T14:48:40.292Z,98677.44
2023-08-29T14:51:07.848Z,98679.41
2023-08-29T14:53:35.583Z,98678.09
2023-08-29T14:56:03.413Z,98673.50
2023-08-29T14:58:32.383Z,98648.94
2023-08-29T15:00:59.913Z,98666.63
2023-08-29T15:03:27.520Z,98673.16
2023-08-29T15:05:58.493Z,98678.91
2023-08-29T15:08:27.328Z,98692.91
2023-08-29T15:10:54.984Z,98695.13
2023-08-29T15:13:23.416Z,98710.44
2023-08-29T15:15:51.186Z,98707.97
2023-08-29T15:18:18.994Z,98723.00
2023-08-29T15:20:46.767Z,98720.84
2023-08-29T15:23:14.334Z,98718.09
2023-08-29T15:25:43.156Z,98728.78
2023-08-29T15:28:11.443Z,98734.25
2023-08-29T15:30:38.968Z,98721.13
2023-08-29T15:33:06.275Z,98726.03
2023-08-29T15:35:33.484Z,98741.63
2023-08-29T15:38:01.029Z,98751.47
2023-08-29T15:40:28.518Z,98759.94
2023-08-29T15:42:56.007Z,98741.63
2023-08-29T15:45:23.347Z,98749.81
2023-08-29T15:47:53.535Z,98744.63
2023-08-29T15:50:21.143Z,98765.97
2023-08-29T15:52:48.482Z,98768.13
2023-08-29T15:55:16.348Z,98763.00
2023-08-29T15:57:43.825Z,98749.59
2023-08-29T16:00:15.438Z,98761.88
2023-08-29T16:02:46.272Z,98750.66
2023-08-29T16:05:13.959Z,98747.13
2023-08-29T16:07:41.474Z,98756.94
2023-08-29T16:10:14.020Z,98740.00
2023-08-29T16:12:42.854Z,98763.78
2023-08-29T16:15:11.085Z,98754.22
2023-08-29T16:17:38.954Z,98748.75
2023-08-29T16:20:12.619Z,98747.09
2023-08-29T16:22:40.266Z,98749.56
2023-08-29T16:25:08.193Z,98758.28
2023-08-29T16:27:38.869Z,98733.97
2023-08-29T16:30:08.600Z,98729.56
2023-08-29T16:32:36.750Z,98738.91
2023-08-29T16:35:04.628Z,98717.56
2023-08-29T16:37:32.167Z,98724.13
2023-08-29T16:39:59.540Z,98723.81
2023-08-29T16:42:28.754Z,98749.59
2023-08-29T16:44:56.139Z,98737.25
2023-08-29T16:47:23.797Z,98748.16
2023-08-29T16:49:51.327Z,98755.56
2023-08-29T16:52:18.980Z,98749.81
2023-08-29T16:54:46.776Z,98756.63
2023-08-29T16:57:14.093Z,98753.34
2023-08-29T17:00:01.517Z,98763.72
2023-08-29T17:02:29.820Z,98779.06
2023-08-29T17:04:57.600Z,98781.78
2023-08-29T17:07:25.696Z,98780.94
2023-08-29T17:09:52.971Z,98770.50
2023-08-29T17:12:21.477Z,98772.16
2023-08-29T17:14:52.471Z,98776.19
2023-08-29T17:17:20.586Z,98765.53
2023-08-29T17:19:48.547Z,98765.81
2023-08-29T17:22:16.332Z,98754.91
2023-08-29T17:24:43.872Z,98757.34
2023-08-29T17:27:11.171Z,98762.53
2023-08-29T17:29:38.900Z,98764.19
2023-08-29T17:32:07.323Z,98761.75
2023-08-29T17:34:35.324Z,98756.03
2023-08-29T17:37:03.100Z,98782.84
2023-08-29T17:39:30.827Z,98779.88
2023-08-29T17:41:58.042Z,98789.72
2023-08-29T17:44:25.413Z,98780.69
2023-08-29T17:46:52.841Z,98775.25
2023-08-29T17:49:20.237Z,98772.50
2023-08-29T17:51:49.073Z,98765.94
2023-08-29T17:54:17.208Z,98771.66
2023-08-29T17:56:45.228Z,98775.78
2023-08-29T17:59:12.910Z,98761.25
2023-08-29T18:01:40.305Z,98765.94
2023-08-29T18:04:09.037Z,98766.75
2023-08-29T18:06:36.843Z,98760.16
2023-08-29T18:09:05.415Z,98764.00
2023-08-29T18:11:33.700Z,98761.53
2023-08-29T18:14:01.942Z,98754.13
2023-08-29T18:16:29.224Z,98763.41
2023-08-29T18:19:00.593Z,98759.03
2023-08-29T18:21:28.588Z,98760.94
2023-08-29T18:23:56.770Z,98768.59
2023-08-29T18:26:24.234Z,98757.94
2023-08-29T18:28:51.765Z,98754.97
2023-08-29T18:31:19.223Z,98759.06
2023-08-29T18:33:46.591Z,98756.59
2023-08-29T18:36:14.478Z,98762.06
2023-08-29T18:38:41.996Z,98750.63
2023-08-29T18:41:10.395Z,98747.91
2023-08-29T18:43:39.882Z,98747.31
2023-08-29T18:46:07.433Z,98744.84
2023-08-29T18:48:35.306Z,98746.50
2023-08-29T18:51:02.729Z,98734.47
2023-08-29T18:53:30.215Z,98729.28
2023-08-29T18:55:57.572Z,98730.09
2023-08-29T18:58:24.854Z,98713.97
2023-08-29T19:00:52.256Z,98720.78
2023-08-29T19:03:20.072Z,98717.50
2023-08-29T19:05:47.670Z,98715.28
2023-08-29T19:08:14.948Z,98720.78
2023-08-29T19:10:45.089Z,98736.09
2023-08-29T19:13:12.955Z,98729.53
2023-08-29T19:15:40.270Z,98725.72
2023-08-29T19:18:08.529Z,98733.38
2023-08-29T19:20:38.661Z,98725.97
2023-08-29T19:23:06.540Z,98743.22
2023-08-29T19:25:34.357Z,98735.84
2023-08-29T19:28:01.540Z,98740.22
2023-08-29T19:30:29.086Z,98745.69
2023-08-29T19:33:01.638Z,98745.72
2023-08-29T19:35:31.603Z,98743.25
2023-08-29T19:37:59.758Z,98748.44
2023-08-29T19:40:27.002Z,98750.06
2023-08-29T19:42:54.789Z,98757.44
2023-08-29T19:45:21.882Z,98767.28
2023-08-29T19:47:49.601Z,98765.66
2023-08-29T19:50:16.954Z,98763.75
2023-08-29T19:52:47.505Z,98747.63
2023-08-29T19:55:15.754Z,98753.91
2023-08-29T19:57:43.288Z,98751.19
2023-08-29T20:00:10.972Z,98743.25
2023-08-29T20:02:41.160Z,98748.16
2023-08-29T20:05:09.343Z,98756.66
2023-08-29T20:07:36.934Z,98746.25
2023-08-29T20:10:04.448Z,98736.69
2023-08-29T20:12:31.934Z,98742.16
2023-08-29T20:14:59.907Z,98735.88
2023-08-29T20:17:27.163Z,98741.06
2023-08-29T20:19:54.501Z,98741.06
2023-08-29T20:22:22.333Z,98737.22
2023-08-29T20:24:49.806Z,98736.69
2023-08-29T20:27:17.477Z,98741.06
2023-08-29T20:29:44.980Z,98732.84
2023-08-29T20:32:12.309Z,98721.91
2023-08-29T20:34:40.881Z,98723.00
2023-08-29T20:37:09.040Z,98714.22
2023-08-29T20:39:36.136Z,98727.63
2023-08-29T20:42:03.850Z,98730.34
2023-08-29T20:44:31.604Z,98731.13
2023-08-29T20:46:58.770Z,98718.84
2023-08-29T20:49:26.196Z,98711.47
2023-08-29T20:51:53.537Z,98719.94
2023-08-29T20:54:21.261Z,98714.47
2023-08-29T20:56:48.653Z,98723.22
2023-08-29T20:59:15.861Z,98714.94
2023-08-29T21:01:43.164Z,98719.59
2023-08-29T21:04:10.313Z,98727.22
2023-08-29T21:06:39.812Z,98714.94
2023-08-29T21:09:07.255Z,98707.28
2023-08-29T21:11:34.833Z,98714.41
2023-08-29T21:14:02.289Z,98716.59
2023-08-29T21:16:29.651Z,98708.94
2023-08-29T21:18:57.680Z,98725.03
2023-08-29T21:21:25.352Z,98720.41
2023-08-29T21:23:52.837Z,98724.72
2023-08-29T21:26:20.069Z,98727.19
2023-08-29T21:28:47.563Z,98738.66
2023-08-29T21:31:15.743Z,98736.72
2023-08-29T21:33:44.116Z,98735.91
2023-08-29T21:36:11.777Z,98741.91
2023-08-29T21:38:38.920Z,98734.75
2023-08-29T21:41:06.669Z,98736.66
2023-08-29T21:43:33.868Z,98734.22
2023-08-29T21:46:01.612Z,98744.88
2023-08-29T21:48:31.741Z,98756.59
2023-08-29T21:50:58.963Z,98748.69
2023-08-29T21:53:26.364Z,98747.09
2023-08-29T21:55:53.643Z,98751.72
2023-08-29T21:58:21.479Z,98744.09
2023-08-29T22:00:49.457Z,98754.53
2023-08-29T22:03:17.008Z,98754.81
2023-08-29T22:05:44.254Z,98753.44
2023-08-29T22:08:11.951Z,98746.97
2023-08-29T22:10:39.526Z,98742.06
2023-08-29T22:13:09.317Z,98739.88
2023-08-29T22:15:37.609Z,98742.06
2023-08-29T22:18:06.395Z,98749.75
2023-08-29T22:20:34.186Z,98746.19
2023-08-29T22:23:01.506Z,98751.94
2023-08-29T22:25:28.895Z,98744.00
2023-08-29T22:27:56.689Z,98755.22
2023-08-29T22:30:25.521Z,98751.66
2023-08-29T22:32:53.041Z,98758.22
2023-08-29T22:35:20.846Z,98751.63
2023-08-29T22:37:48.437Z,98747.50
2023-08-29T22:40:16.061Z,98760.28
2023-08-29T22:42:43.551Z,98770.63
2023-08-29T22:45:11.293Z,98755.88
2023-08-29T22:47:38.564Z,98754.53
2023-08-29T22:50:07.182Z,98752.84
2023-08-29T22:52:34.916Z,98758.00
2023-08-29T22:55:05.524Z,98751.94
2023-08-29T22:57:33.680Z,98757.94
2023-08-29T23:00:01.190Z,98752.97
2023-08-29T23:02:28.671Z,98757.38
2023-08-29T23:04:56.345Z,98755.41
2023-08-29T23:07:24.000Z,98739.56
2023-08-29T23:09:51.306Z,98740.34
2023-08-29T23:12:19.944Z,98740.88
2023-08-29T23:14:47.506Z,98734.84
2023-08-29T23:17:15.521Z,98746.84
2023-08-29T23:19:44.881Z,98733.47
2023-08-29T23:22:12.210Z,98752.81
2023-08-29T23:24:39.902Z,98747.66
2023-08-29T23:27:07.792Z,98749.59
2023-08-29T23:29:37.529Z,98746.59
2023-08-29T23:32:06.086Z,98739.19
2023-08-29T23:34:33.615Z,98729.66
2023-08-29T23:37:00.957Z,98735.38
2023-08-29T23:39:28.461Z,98732.66
2023-08-29T23:41:56.875Z,98725.28
2023-08-29T23:44:24.522Z,98731.56
2023-08-29T23:46:51.796Z,98743.31
2023-08-29T23:49:19.200Z,98737.38
2023-08-29T23:51:47.142Z,98728.59
2023-08-29T23:54:14.850Z,98730.28
2023-08-29T23:56:42.481Z,98732.47
2023-08-29T23:59:10.215Z,98718.28
